createdAt,value
2019-03-01T00:01:13.239Z,9.33
2019-03-01T00:03:45.185Z,10.03
2019-03-01T00:06:35.077Z,7.10
2019-03-01T00:09:58.973Z,8.90
2019-03-01T00:13:08.741Z,9.17
2019-03-01T00:15:59.160Z,10.73
2019-03-01T00:19:45.953Z,10.20
2019-03-01T00:23:01.787Z,7.63
2019-03-01T00:26:12.167Z,8.70
2019-03-01T00:29:25.664Z,8.33
2019-03-01T00:32:21.808Z,11.07
2019-03-01T00:36:01.341Z,6.70
2019-03-01T00:39:09.873Z,9.23
2019-03-01T00:42:21.388Z,6.53
2019-03-01T00:44:53.181Z,10.23
2019-03-01T00:47:24.923Z,8.93
2019-03-01T00:49:56.633Z,8.03
2019-03-01T00:52:28.368Z,0.85
2019-03-01T00:55:00.328Z,5.30
2019-03-01T00:57:32.080Z,1.33
2019-03-01T01:00:04.024Z,4.10
2019-03-01T01:02:35.765Z,10.90
2019-03-01T01:05:08.081Z,2.77
2019-03-01T01:07:39.913Z,6.63
2019-03-01T01:10:11.989Z,6.77
2019-03-01T01:12:43.716Z,5.13
2019-03-01T01:15:15.498Z,2.33
2019-03-01T01:17:47.396Z,4.23
2019-03-01T01:20:19.257Z,3.73
2019-03-01T01:22:51.059Z,6.43
2019-03-01T01:25:22.773Z,7.87
2019-03-01T01:27:54.498Z,6.65
2019-03-01T01:30:26.218Z,6.00
2019-03-01T01:32:58.008Z,6.40
2019-03-01T01:35:32.323Z,4.13
2019-03-01T01:38:04.273Z,2.80
2019-03-01T01:40:36.151Z,3.93
2019-03-01T01:43:07.959Z,6.77
2019-03-01T01:45:39.756Z,3.17
2019-03-01T01:48:11.489Z,5.37
2019-03-01T01:50:43.235Z,3.13
2019-03-01T01:53:14.971Z,2.30
2019-03-01T01:55:46.938Z,2.47
2019-03-01T01:58:18.778Z,4.08
2019-03-01T02:00:50.602Z,2.80
2019-03-01T02:03:22.578Z,2.70
2019-03-01T02:05:54.445Z,5.67
2019-03-01T02:08:26.265Z,6.12
2019-03-01T02:10:58.062Z,2.90
2019-03-01T02:13:31.026Z,4.33
2019-03-01T02:16:02.820Z,2.50
2019-03-01T02:18:34.542Z,2.07
2019-03-01T02:21:06.401Z,0.73
2019-03-01T02:23:40.076Z,2.60
2019-03-01T02:26:11.807Z,5.07
2019-03-01T02:28:43.693Z,4.80
2019-03-01T02:31:17.003Z,2.77
2019-03-01T02:33:48.722Z,0.53
2019-03-01T02:36:20.968Z,3.08
2019-03-01T02:38:52.703Z,2.70
2019-03-01T02:41:24.437Z,2.72
2019-03-01T02:43:56.173Z,4.23
2019-03-01T02:46:27.882Z,4.08
2019-03-01T02:48:59.611Z,3.07
2019-03-01T02:51:31.521Z,5.17
2019-03-01T02:54:03.249Z,4.80
2019-03-01T02:56:34.984Z,2.93
2019-03-01T02:59:06.717Z,5.00
2019-03-01T03:01:38.516Z,7.23
2019-03-01T03:04:10.250Z,5.17
2019-03-01T03:06:50.326Z,4.87
2019-03-01T03:09:22.053Z,4.97
2019-03-01T03:11:54.021Z,3.33
2019-03-01T03:14:25.788Z,5.37
2019-03-01T03:16:57.743Z,2.13
2019-03-01T03:19:29.611Z,5.93
2019-03-01T03:22:02.291Z,4.00
2019-03-01T03:24:34.027Z,5.30
2019-03-01T03:27:05.875Z,4.57
2019-03-01T03:29:37.591Z,4.40
2019-03-01T03:32:09.311Z,4.30
2019-03-01T03:34:41.093Z,4.00
2019-03-01T03:37:12.830Z,4.37
2019-03-01T03:39:44.541Z,4.67
2019-03-01T03:42:16.483Z,3.95
2019-03-01T03:44:48.215Z,5.77
2019-03-01T03:47:20.011Z,3.77
2019-03-01T03:49:52.154Z,4.03
2019-03-01T03:52:24.410Z,5.33
2019-03-01T03:54:56.368Z,2.13
2019-03-01T03:57:28.168Z,2.95
2019-03-01T03:59:59.892Z,3.80
2019-03-01T04:02:31.605Z,4.97
2019-03-01T04:05:03.828Z,3.97
2019-03-01T04:07:35.689Z,3.47
2019-03-01T04:10:08.000Z,2.67
2019-03-01T04:12:40.375Z,4.85
2019-03-01T04:15:13.760Z,4.73
2019-03-01T04:17:45.558Z,2.50
2019-03-01T04:20:18.337Z,3.90
2019-03-01T04:22:50.149Z,5.30
2019-03-01T04:25:21.855Z,3.27
2019-03-01T04:27:53.661Z,2.70
2019-03-01T04:30:25.406Z,2.53
2019-03-01T04:32:57.129Z,3.20
2019-03-01T04:35:28.919Z,3.60
2019-03-01T04:38:00.888Z,2.73
2019-03-01T04:40:32.692Z,8.37
2019-03-01T04:43:04.410Z,3.98
2019-03-01T04:45:36.549Z,5.70
2019-03-01T04:48:08.261Z,6.73
2019-03-01T04:50:40.006Z,3.47
2019-03-01T04:53:11.727Z,3.80
2019-03-01T04:55:43.799Z,2.90
2019-03-01T04:58:15.607Z,4.23
2019-03-01T05:00:47.586Z,4.97
2019-03-01T05:03:19.301Z,3.33
2019-03-01T05:05:51.359Z,3.20
2019-03-01T05:08:23.082Z,3.33
2019-03-01T05:10:55.052Z,6.07
2019-03-01T05:13:26.830Z,2.80
2019-03-01T05:15:58.567Z,2.30
2019-03-01T05:18:30.291Z,2.90
2019-03-01T05:21:02.101Z,2.43
2019-03-01T05:23:34.059Z,3.85
2019-03-01T05:26:05.777Z,4.97
2019-03-01T05:28:37.768Z,6.90
2019-03-01T05:31:09.579Z,6.27
2019-03-01T05:33:41.294Z,4.73
2019-03-01T05:36:13.244Z,4.47
2019-03-01T05:38:45.024Z,4.57
2019-03-01T05:41:17.022Z,5.20
2019-03-01T05:43:49.017Z,4.43
2019-03-01T05:46:20.992Z,6.30
2019-03-01T05:48:52.714Z,4.53
2019-03-01T05:51:24.461Z,3.77
2019-03-01T05:53:56.184Z,2.17
2019-03-01T05:56:28.111Z,5.47
2019-03-01T05:59:21.499Z,2.77
2019-03-01T06:02:29.119Z,5.73
2019-03-01T06:05:08.107Z,11.37
2019-03-01T06:08:37.105Z,6.15
2019-03-01T06:12:08.068Z,3.67
2019-03-01T06:15:34.131Z,7.50
2019-03-01T06:18:40.726Z,7.83
2019-03-01T06:21:49.052Z,3.97
2019-03-01T06:25:02.846Z,3.07
2019-03-01T06:28:18.811Z,2.20
2019-03-01T06:31:41.749Z,4.28
2019-03-01T06:35:06.264Z,8.00
2019-03-01T06:39:10.789Z,4.90
2019-03-01T06:42:56.132Z,4.43
2019-03-01T06:45:59.559Z,2.55
2019-03-01T06:48:48.885Z,24.53
2019-03-01T06:51:28.781Z,1.52
2019-03-01T06:53:57.289Z,1.80
2019-03-01T06:56:29.427Z,2.63
2019-03-01T06:59:04.170Z,1.27
2019-03-01T07:01:40.945Z,2.50
2019-03-01T07:04:16.758Z,2.23
2019-03-01T07:06:48.670Z,1.67
2019-03-01T07:09:20.424Z,3.00
2019-03-01T07:11:52.161Z,2.70
2019-03-01T07:14:23.877Z,4.87
2019-03-01T07:16:55.873Z,0.90
2019-03-01T07:19:27.585Z,3.00
2019-03-01T07:21:59.314Z,2.27
2019-03-01T07:24:31.099Z,2.67
2019-03-01T07:27:02.822Z,0.43
2019-03-01T07:29:34.543Z,1.50
2019-03-01T07:32:06.267Z,1.67
2019-03-01T07:34:38.053Z,1.30
2019-03-01T07:37:09.778Z,1.53
2019-03-01T07:39:41.490Z,1.00
2019-03-01T07:42:13.221Z,1.33
2019-03-01T07:44:45.973Z,2.83
2019-03-01T07:47:17.699Z,3.55
2019-03-01T07:49:49.672Z,1.53
2019-03-01T07:52:21.423Z,1.42
2019-03-01T07:54:53.740Z,2.00
2019-03-01T07:57:25.519Z,4.55
2019-03-01T07:59:57.485Z,4.87
2019-03-01T08:02:29.202Z,1.45
2019-03-01T08:05:04.269Z,2.33
2019-03-01T08:07:34.503Z,4.03
2019-03-01T08:10:08.420Z,1.60
2019-03-01T08:12:42.610Z,1.97
2019-03-01T08:15:15.568Z,1.80
2019-03-01T08:17:47.531Z,2.37
2019-03-01T08:20:19.264Z,0.95
2019-03-01T08:22:51.234Z,2.20
2019-03-01T08:25:24.596Z,1.63
2019-03-01T08:27:56.510Z,1.23
2019-03-01T08:30:28.216Z,3.00
2019-03-01T08:33:02.624Z,2.10
2019-03-01T08:35:34.364Z,1.10
2019-03-01T08:38:06.168Z,1.20
2019-03-01T08:40:37.956Z,1.53
2019-03-01T08:43:13.019Z,2.20
2019-03-01T08:45:43.159Z,1.63
2019-03-01T08:48:14.957Z,1.90
2019-03-01T08:50:47.117Z,0.80
2019-03-01T08:53:19.085Z,4.78
2019-03-01T08:55:52.168Z,4.07
2019-03-01T08:58:23.948Z,6.35
2019-03-01T09:00:59.600Z,1.33
2019-03-01T09:03:34.995Z,1.63
2019-03-01T09:06:06.769Z,2.50
2019-03-01T09:08:38.832Z,1.10
2019-03-01T09:11:11.611Z,1.22
2019-03-01T09:13:43.323Z,3.17
2019-03-01T09:16:15.121Z,1.20
2019-03-01T09:18:49.909Z,0.40
2019-03-01T09:21:20.255Z,1.45
2019-03-01T09:23:55.029Z,1.10
2019-03-01T09:26:26.991Z,1.20
2019-03-01T09:28:58.710Z,1.67
2019-03-01T09:31:30.422Z,1.97
2019-03-01T09:34:02.205Z,2.83
2019-03-01T09:36:37.778Z,2.40
2019-03-01T09:39:10.691Z,1.50
2019-03-01T09:41:42.477Z,1.17
2019-03-01T09:44:14.200Z,1.27
2019-03-01T09:46:46.244Z,1.47
2019-03-01T09:49:17.967Z,6.10
2019-03-01T09:51:50.076Z,20.93
2019-03-01T09:54:21.848Z,1.80
2019-03-01T09:56:53.626Z,1.85
2019-03-01T09:59:25.359Z,1.37
2019-03-01T10:01:57.063Z,1.87
2019-03-01T10:04:28.787Z,1.60
2019-03-01T10:07:00.507Z,0.73
2019-03-01T10:09:32.230Z,0.97
2019-03-01T10:12:03.940Z,1.27
2019-03-01T10:14:35.735Z,1.10
2019-03-01T10:17:07.451Z,2.20
2019-03-01T10:19:39.166Z,1.40
2019-03-01T10:22:11.368Z,0.80
2019-03-01T10:24:43.084Z,2.23
2019-03-01T10:27:14.798Z,0.97
2019-03-01T10:29:46.518Z,1.13
2019-03-01T10:32:18.298Z,1.02
2019-03-01T10:34:50.024Z,1.43
2019-03-01T10:37:21.806Z,1.17
2019-03-01T10:39:55.533Z,1.43
2019-03-01T10:42:27.258Z,1.92
2019-03-01T10:44:59.239Z,1.63
2019-03-01T10:47:30.946Z,1.53
2019-03-01T10:50:02.669Z,1.77
2019-03-01T10:52:34.443Z,1.53
2019-03-01T10:55:08.237Z,2.13
2019-03-01T10:57:41.058Z,1.30
2019-03-01T11:00:22.009Z,1.72
2019-03-01T11:02:54.124Z,1.50
2019-03-01T11:05:26.218Z,1.45
2019-03-01T11:07:58.010Z,1.33
2019-03-01T11:10:32.744Z,1.23
2019-03-01T11:13:05.130Z,1.50
2019-03-01T11:15:36.995Z,1.97
2019-03-01T11:18:08.796Z,2.83
2019-03-01T11:20:40.598Z,1.67
2019-03-01T11:23:12.308Z,1.67
2019-03-01T11:25:44.179Z,1.33
2019-03-01T11:28:15.883Z,1.57
2019-03-01T11:30:47.681Z,1.10
2019-03-01T11:33:20.433Z,1.13
2019-03-01T11:35:52.297Z,2.07
2019-03-01T11:38:24.098Z,1.62
2019-03-01T11:40:55.989Z,1.07
2019-03-01T11:43:28.674Z,2.47
2019-03-01T11:46:00.763Z,2.93
2019-03-01T11:48:32.571Z,2.63
2019-03-01T11:51:04.299Z,3.17
2019-03-01T11:53:36.073Z,4.13
2019-03-01T11:56:07.865Z,2.43
2019-03-01T11:58:39.579Z,1.50
2019-03-01T12:01:17.076Z,3.67
2019-03-01T12:03:44.706Z,2.62
2019-03-01T12:06:16.750Z,4.20
2019-03-01T12:08:48.508Z,2.80
2019-03-01T12:11:20.297Z,3.93
2019-03-01T12:13:52.002Z,2.90
2019-03-01T12:16:23.827Z,3.80
2019-03-01T12:18:55.551Z,4.30
2019-03-01T12:21:27.273Z,4.83
2019-03-01T12:23:58.981Z,2.83
2019-03-01T12:26:30.777Z,3.43
2019-03-01T12:29:02.756Z,4.03
2019-03-01T12:31:34.726Z,4.70
2019-03-01T12:34:06.827Z,5.93
2019-03-01T12:36:38.876Z,3.42
2019-03-01T12:39:11.289Z,3.20
2019-03-01T12:41:43.329Z,2.77
2019-03-01T12:44:15.041Z,2.70
2019-03-01T12:46:47.084Z,2.40
2019-03-01T12:49:18.793Z,3.02
2019-03-01T12:51:50.597Z,2.73
2019-03-01T12:54:22.307Z,9.78
2019-03-01T12:56:54.086Z,4.90
2019-03-01T12:59:25.801Z,1.97
2019-03-01T13:01:57.515Z,3.67
2019-03-01T13:04:29.224Z,2.08
2019-03-01T13:07:00.934Z,2.83
2019-03-01T13:09:32.639Z,3.27
2019-03-01T13:12:04.355Z,5.37
2019-03-01T13:14:36.757Z,3.70
2019-03-01T13:17:09.496Z,6.33
2019-03-01T13:19:41.204Z,3.77
2019-03-01T13:22:13.179Z,4.20
2019-03-01T13:24:44.888Z,5.80
2019-03-01T13:27:17.307Z,4.60
2019-03-01T13:29:49.940Z,3.23
2019-03-01T13:32:23.126Z,7.95
2019-03-01T13:34:55.385Z,2.00
2019-03-01T13:37:27.183Z,4.40
2019-03-01T13:39:58.889Z,3.63
2019-03-01T13:42:30.599Z,3.93
2019-03-01T13:45:02.306Z,2.00
2019-03-01T13:47:34.088Z,4.43
2019-03-01T13:50:07.262Z,3.60
2019-03-01T13:52:39.196Z,3.97
2019-03-01T13:55:11.409Z,4.33
2019-03-01T13:57:46.114Z,4.70
2019-03-01T14:00:18.400Z,3.65
2019-03-01T14:02:50.759Z,3.57
2019-03-01T14:05:22.611Z,4.07
2019-03-01T14:07:56.761Z,3.03
2019-03-01T14:10:27.812Z,3.17
2019-03-01T14:12:59.831Z,3.80
2019-03-01T14:15:31.536Z,3.13
2019-03-01T14:18:03.273Z,3.90
2019-03-01T14:20:34.972Z,4.33
2019-03-01T14:23:06.842Z,3.73
2019-03-01T14:25:41.643Z,2.53
2019-03-01T14:28:12.294Z,3.10
2019-03-01T14:30:44.067Z,3.93
2019-03-01T14:33:15.864Z,4.93
2019-03-01T14:35:47.571Z,4.30
2019-03-01T14:38:19.542Z,3.22
2019-03-01T14:40:51.494Z,4.20
2019-03-01T14:43:23.876Z,3.60
2019-03-01T14:45:56.619Z,5.23
2019-03-01T14:48:28.366Z,6.28
2019-03-01T14:51:00.151Z,4.70
2019-03-01T14:53:34.836Z,4.90
2019-03-01T14:56:21.500Z,5.40
2019-03-01T14:59:00.080Z,5.47
2019-03-01T15:01:46.530Z,4.83
2019-03-01T15:04:18.243Z,5.03
2019-03-01T15:06:51.389Z,4.33
2019-03-01T15:09:23.467Z,5.75
2019-03-01T15:11:55.313Z,3.87
2019-03-01T15:14:27.181Z,3.30
2019-03-01T15:17:00.011Z,6.00
2019-03-01T15:19:31.805Z,6.80
2019-03-01T15:22:04.625Z,5.17
2019-03-01T15:24:37.098Z,4.77
2019-03-01T15:27:08.911Z,4.80
2019-03-01T15:29:40.708Z,4.77
2019-03-01T15:32:12.593Z,5.30
2019-03-01T15:34:45.281Z,6.13
2019-03-01T15:37:18.335Z,5.17
2019-03-01T15:39:51.249Z,5.53
2019-03-01T15:42:23.555Z,7.40
2019-03-01T15:44:55.279Z,6.00
2019-03-01T15:47:27.955Z,6.93
2019-03-01T15:49:59.676Z,7.13
2019-03-01T15:52:31.381Z,4.17
2019-03-01T15:55:03.104Z,5.30
2019-03-01T15:57:35.470Z,8.63
2019-03-01T16:00:07.555Z,7.30
2019-03-01T16:02:40.977Z,5.83
2019-03-01T16:05:12.938Z,7.13
2019-03-01T16:07:44.758Z,5.53
2019-03-01T16:10:16.698Z,5.92
2019-03-01T16:12:48.557Z,5.73
2019-03-01T16:15:21.251Z,9.18
2019-03-01T16:17:53.251Z,7.10
2019-03-01T16:20:28.491Z,5.93
2019-03-01T16:22:58.908Z,5.00
2019-03-01T16:25:30.642Z,4.83
2019-03-01T16:28:02.681Z,10.17
2019-03-01T16:30:35.762Z,8.83
2019-03-01T16:33:07.613Z,8.80
2019-03-01T16:35:39.399Z,9.50
2019-03-01T16:38:11.566Z,9.00
2019-03-01T16:40:43.391Z,10.27
2019-03-01T16:43:15.105Z,9.93
2019-03-01T16:45:47.004Z,8.37
2019-03-01T16:48:19.086Z,12.17
2019-03-01T16:50:50.833Z,10.77
2019-03-01T16:53:22.576Z,8.13
2019-03-01T16:55:54.489Z,10.87
2019-03-01T16:58:28.186Z,10.48
2019-03-01T17:00:59.676Z,12.13
2019-03-01T17:03:31.654Z,9.30
2019-03-01T17:06:03.526Z,10.20
2019-03-01T17:08:36.386Z,12.97
2019-03-01T17:11:08.955Z,9.10
2019-03-01T17:13:40.870Z,10.60
2019-03-01T17:16:12.984Z,13.70
2019-03-01T17:18:47.845Z,13.13
2019-03-01T17:21:18.584Z,10.27
2019-03-01T17:23:50.647Z,15.90
2019-03-01T17:26:22.508Z,14.00
2019-03-01T17:28:54.240Z,13.13
2019-03-01T17:31:26.945Z,14.13
2019-03-01T17:33:59.660Z,11.43
2019-03-01T17:36:31.491Z,7.23
2019-03-01T17:39:04.318Z,15.60
2019-03-01T17:41:37.627Z,19.97
2019-03-01T17:44:09.630Z,16.93
2019-03-01T17:46:41.380Z,12.50
2019-03-01T17:49:13.169Z,23.17
2019-03-01T17:51:44.914Z,20.33
2019-03-01T17:54:19.032Z,20.62
2019-03-01T17:56:50.541Z,22.73
2019-03-01T17:59:23.331Z,22.98
2019-03-01T18:01:55.169Z,21.40
2019-03-01T18:04:27.073Z,21.93
2019-03-01T18:06:59.761Z,19.43
2019-03-01T18:09:31.975Z,22.27
2019-03-01T18:12:03.708Z,19.63
2019-03-01T18:14:36.911Z,18.63
2019-03-01T18:17:09.051Z,16.03
2019-03-01T18:19:40.838Z,17.90
2019-03-01T18:22:13.571Z,21.37
2019-03-01T18:24:46.744Z,18.17
2019-03-01T18:27:18.835Z,16.87
2019-03-01T18:29:50.609Z,16.80
2019-03-01T18:32:22.410Z,14.13
2019-03-01T18:34:55.216Z,14.93
2019-03-01T18:37:27.062Z,14.63
2019-03-01T18:39:59.532Z,14.57
2019-03-01T18:42:34.324Z,17.07
2019-03-01T18:45:07.053Z,16.70
2019-03-01T18:47:38.815Z,9.40
2019-03-01T18:50:15.909Z,30.43
2019-03-01T18:52:49.611Z,24.53
2019-03-01T18:55:21.799Z,20.23
2019-03-01T18:57:53.743Z,17.70
2019-03-01T19:00:32.511Z,25.35
2019-03-01T19:03:05.977Z,23.40
2019-03-01T19:05:40.134Z,24.63
2019-03-01T19:08:12.207Z,26.83
2019-03-01T19:10:53.719Z,27.70
2019-03-01T19:13:20.894Z,19.67
2019-03-01T19:15:54.381Z,23.38
2019-03-01T19:18:25.122Z,22.77
2019-03-01T19:20:56.985Z,35.67
2019-03-01T19:23:29.426Z,31.00
2019-03-01T19:26:02.829Z,38.60
2019-03-01T19:28:34.674Z,36.73
2019-03-01T19:31:06.714Z,41.30
2019-03-01T19:33:41.467Z,23.67
2019-03-01T19:36:12.802Z,37.97
2019-03-01T19:38:46.501Z,36.57
2019-03-01T19:41:20.071Z,36.88
2019-03-01T19:43:57.449Z,46.60
2019-03-01T19:46:26.550Z,43.48
2019-03-01T19:48:58.721Z,48.45
2019-03-01T19:51:33.778Z,41.57
2019-03-01T19:54:04.092Z,48.23
2019-03-01T19:56:36.790Z,47.20
2019-03-01T19:59:08.659Z,51.33
2019-03-01T20:01:40.797Z,28.10
2019-03-01T20:04:12.929Z,44.70
2019-03-01T20:06:44.957Z,47.57
2019-03-01T20:09:16.789Z,50.50
2019-03-01T20:11:48.578Z,50.17
2019-03-01T20:14:20.439Z,37.45
2019-03-01T20:16:54.908Z,41.43
2019-03-01T20:19:26.087Z,41.87
2019-03-01T20:21:57.872Z,39.30
2019-03-01T20:24:29.639Z,50.50
2019-03-01T20:27:03.066Z,49.67
2019-03-01T20:29:34.880Z,59.15
2019-03-01T20:32:06.663Z,44.30
2019-03-01T20:34:38.936Z,57.20
2019-03-01T20:37:11.787Z,49.30
2019-03-01T20:39:43.560Z,59.50
2019-03-01T20:42:17.678Z,61.10
2019-03-01T20:44:50.276Z,63.80
2019-03-01T20:47:23.092Z,57.80
2019-03-01T20:49:55.827Z,39.40
2019-03-01T20:52:27.715Z,53.30
2019-03-01T20:55:00.574Z,37.47
2019-03-01T20:57:32.722Z,46.97
2019-03-01T21:00:05.690Z,46.00
2019-03-01T21:02:39.245Z,38.20
2019-03-01T21:05:12.518Z,42.70
2019-03-01T21:07:44.482Z,53.43
2019-03-01T21:10:19.291Z,51.27
2019-03-01T21:12:51.244Z,45.57
2019-03-01T21:15:23.224Z,61.90
2019-03-01T21:17:57.125Z,61.67
2019-03-01T21:20:28.674Z,62.08
2019-03-01T21:23:00.715Z,40.30
2019-03-01T21:25:35.943Z,66.30
2019-03-01T21:28:06.206Z,66.80
2019-03-01T21:30:37.991Z,52.80
2019-03-01T21:33:11.872Z,45.10
2019-03-01T21:35:43.498Z,61.67
2019-03-01T21:38:15.275Z,64.87
2019-03-01T21:40:47.096Z,73.87
2019-03-01T21:43:19.329Z,47.10
2019-03-01T21:45:51.251Z,70.80
2019-03-01T21:48:25.317Z,47.00
2019-03-01T21:50:56.666Z,68.83
2019-03-01T21:53:28.781Z,38.98
2019-03-01T21:56:04.235Z,42.97
2019-03-01T21:58:34.737Z,71.20
2019-03-01T22:01:07.594Z,73.03
2019-03-01T22:03:40.853Z,75.40
2019-03-01T22:06:12.688Z,72.27
2019-03-01T22:08:48.572Z,67.90
2019-03-01T22:11:20.775Z,52.40
2019-03-01T22:13:52.151Z,49.50
2019-03-01T22:16:24.479Z,38.93
2019-03-01T22:18:58.651Z,43.30
2019-03-01T22:21:30.126Z,35.47
2019-03-01T22:24:01.976Z,65.77
2019-03-01T22:26:33.755Z,75.90
2019-03-01T22:29:08.797Z,73.20
2019-03-01T22:31:39.752Z,49.00
2019-03-01T22:34:12.037Z,72.93
2019-03-01T22:36:44.203Z,44.97
2019-03-01T22:39:16.590Z,63.50
2019-03-01T22:41:49.312Z,35.55
2019-03-01T22:44:21.089Z,67.85
2019-03-01T22:46:53.436Z,56.70
2019-03-01T22:49:25.252Z,47.90
2019-03-01T22:51:57.146Z,53.20
2019-03-01T22:54:29.276Z,64.72
2019-03-01T22:57:01.083Z,33.10
2019-03-01T22:59:33.394Z,53.53
2019-03-01T23:02:09.274Z,65.53
2019-03-01T23:04:42.604Z,46.03
2019-03-01T23:07:14.537Z,59.42
2019-03-01T23:09:47.533Z,69.67
2019-03-01T23:12:21.033Z,53.70
2019-03-01T23:14:52.834Z,49.67
2019-03-01T23:17:27.563Z,59.58
2019-03-01T23:19:58.123Z,50.00
2019-03-01T23:22:30.222Z,56.07
2019-03-01T23:25:02.929Z,52.67
2019-03-01T23:27:34.942Z,54.90
2019-03-01T23:30:06.919Z,54.23
2019-03-01T23:32:38.922Z,49.83
2019-03-01T23:35:14.641Z,51.58
2019-03-01T23:37:45.057Z,46.40
2019-03-01T23:40:17.381Z,22.07
2019-03-01T23:42:49.123Z,49.70
2019-03-01T23:45:20.865Z,41.80
2019-03-01T23:47:52.603Z,44.60
2019-03-01T23:50:24.440Z,46.20
2019-03-01T23:52:58.813Z,48.70
2019-03-01T23:55:29.902Z,31.70
2019-03-01T23:58:05.942Z,46.47
